Time;durP1;ratioP1;P1;durP2;ratioP2;P2;SDS_P1;SDS_P2;PMS_P1;PMS_P2;Temp;Humidity;BMP_temperature;BMP_pressure;BME280_temperature;BME280_humidity;BME280_pressure;Samples;Min_cycle;Max_cycle;Signal;HPM_P1;HPM_P2
2021/03/24 00:01:51;;;;;;;25.47;15.43;;;6.60;99.90;;;;;;5093971;28;20285;-61
2021/03/24 00:04:18;;;;;;;25.40;15.80;;;6.60;99.90;;;;;;5094077;28;20214;-62
2021/03/24 00:06:44;;;;;;;24.23;16.00;;;6.60;99.90;;;;;;5094283;28;20196;-62
2021/03/24 00:09:14;;;;;;;25.80;16.63;;;6.50;99.90;;;;;;5094049;28;20208;-61
2021/03/24 01:26:42;;;;;;;28.87;18.80;;;6.50;99.90;;;;;;5054414;28;20207;-61
2021/03/24 01:29:09;;;;;;;30.57;18.17;;;6.40;99.90;;;;;;5060642;28;20240;-61
2021/03/24 01:31:35;;;;;;;31.50;19.10;;;6.40;99.90;;;;;;5071418;28;20195;-60
2021/03/24 01:34:03;;;;;;;33.90;19.03;;;6.40;99.90;;;;;;5072482;28;20764;-61
2021/03/24 01:36:30;;;;;;;35.47;20.00;;;6.30;99.90;;;;;;5071801;28;20283;-61
2021/03/24 01:38:57;;;;;;;28.97;19.20;;;6.30;99.90;;;;;;5072282;28;20204;-61
2021/03/24 01:41:27;;;;;;;30.87;18.77;;;6.20;99.90;;;;;;5071911;28;20215;-61
2021/03/24 01:43:56;;;;;;;30.30;19.33;;;6.20;99.90;;;;;;5071718;28;20200;-61
2021/03/24 01:46:36;;;;;;;29.87;18.70;;;6.30;99.90;;;;;;5072470;28;20291;-61
2021/03/24 01:49:09;;;;;;;35.17;19.00;;;6.20;99.90;;;;;;5072460;28;20185;-61
2021/03/24 01:51:39;;;;;;;28.57;18.53;;;6.20;99.90;;;;;;5072180;28;20275;-62
2021/03/24 01:54:10;;;;;;;32.20;19.33;;;6.20;99.90;;;;;;5072515;28;20295;-61
2021/03/24 01:56:38;;;;;;;30.07;18.83;;;6.30;99.90;;;;;;5072395;28;20185;-61
2021/03/24 01:59:06;;;;;;;30.53;19.07;;;6.30;99.90;;;;;;5072079;28;20239;-61
2021/03/24 02:01:33;;;;;;;29.43;18.43;;;6.30;99.90;;;;;;5071949;28;20691;-61
2021/03/24 02:04:00;;;;;;;32.97;19.10;;;6.30;99.90;;;;;;5072371;28;20291;-61
2021/03/24 02:06:32;;;;;;;30.97;19.43;;;6.20;99.90;;;;;;5072249;28;20310;-61
2021/03/24 02:09:06;;;;;;;32.27;19.47;;;6.20;99.90;;;;;;5072338;28;20216;-61
2021/03/24 02:11:37;;;;;;;29.60;18.60;;;6.30;99.90;;;;;;5072194;28;20267;-61
2021/03/24 02:14:11;;;;;;;30.20;18.83;;;6.20;99.90;;;;;;5072252;28;20188;-62
2021/03/24 02:16:41;;;;;;;31.47;20.07;;;6.10;99.90;;;;;;5072336;28;20230;-61
2021/03/24 02:19:18;;;;;;;33.17;19.93;;;6.20;99.90;;;;;;5072300;28;20181;-61
2021/03/24 02:21:46;;;;;;;30.67;20.27;;;6.20;99.90;;;;;;5071601;28;20204;-61
2021/03/24 02:24:23;;;;;;;33.13;20.00;;;6.10;99.90;;;;;;5072255;28;20235;-61
2021/03/24 02:27:10;;;;;;;30.77;19.30;;;6.20;99.90;;;;;;5072038;28;20184;-61
2021/03/24 02:29:40;;;;;;;33.00;20.10;;;6.20;99.90;;;;;;5071801;28;20653;-61
2021/03/24 02:32:11;;;;;;;33.90;19.77;;;6.10;99.90;;;;;;5072231;28;20219;-61
2021/03/24 02:34:39;;;;;;;32.77;19.27;;;6.10;99.90;;;;;;5072082;28;20185;-61
2021/03/24 02:37:09;;;;;;;32.93;20.10;;;6.10;99.90;;;;;;5071589;28;20285;-62
2021/03/24 02:39:38;;;;;;;31.17;20.03;;;6.10;99.90;;;;;;5072167;28;20184;-61
2021/03/24 02:42:08;;;;;;;33.63;19.57;;;6.20;99.90;;;;;;5071792;28;20265;-60
2021/03/24 02:44:37;;;;;;;30.93;19.23;;;6.00;99.90;;;;;;5071627;28;20214;-61
2021/03/24 02:47:06;;;;;;;33.07;20.00;;;6.00;99.90;;;;;;5071933;28;20208;-62
2021/03/24 02:49:34;;;;;;;32.20;20.33;;;6.00;99.90;;;;;;5075195;28;20219;-61
2021/03/24 02:52:02;;;;;;;35.27;20.23;;;6.10;99.90;;;;;;5075050;28;20234;-61
2021/03/24 02:54:32;;;;;;;35.03;20.40;;;6.00;99.90;;;;;;5075138;28;20575;-62
2021/03/24 02:57:00;;;;;;;36.90;21.43;;;6.00;99.90;;;;;;5074932;28;20214;-61
2021/03/24 02:59:28;;;;;;;30.67;19.23;;;6.00;99.90;;;;;;5075432;28;20228;-61
2021/03/24 03:02:02;;;;;;;36.13;20.93;;;5.90;99.90;;;;;;5074983;28;20237;-61
2021/03/24 03:04:33;;;;;;;33.83;21.00;;;6.00;99.90;;;;;;5075111;28;20554;-61
2021/03/24 03:07:05;;;;;;;34.00;19.70;;;6.00;99.90;;;;;;5075115;28;20206;-61
2021/03/24 03:09:39;;;;;;;34.57;19.93;;;6.10;99.90;;;;;;5074911;28;20191;-61
2021/03/24 03:12:14;;;;;;;31.67;19.97;;;6.00;99.90;;;;;;5075032;28;20184;-62
2021/03/24 03:14:46;;;;;;;33.60;20.63;;;6.00;99.90;;;;;;5074708;28;20276;-62
2021/03/24 03:17:17;;;;;;;35.80;21.33;;;6.00;99.90;;;;;;5074826;28;20188;-62
2021/03/24 03:19:49;;;;;;;33.80;20.93;;;6.00;99.90;;;;;;5074551;28;20197;-61
2021/03/24 03:22:20;;;;;;;32.63;20.33;;;6.00;99.90;;;;;;5074921;28;20203;-61
2021/03/24 03:24:52;;;;;;;32.80;19.90;;;5.90;99.90;;;;;;5079332;28;20234;-61
2021/03/24 03:27:21;;;;;;;33.43;20.30;;;5.90;99.90;;;;;;5094930;28;20615;-60
2021/03/24 03:29:52;;;;;;;31.83;20.10;;;5.90;99.90;;;;;;5094894;28;20203;-61
2021/03/24 03:32:22;;;;;;;34.50;20.47;;;5.90;99.90;;;;;;5094919;28;20233;-62
2021/03/24 03:34:55;;;;;;;33.40;20.47;;;6.00;99.90;;;;;;5094703;28;20210;-61
2021/03/24 03:37:24;;;;;;;32.77;20.80;;;6.00;99.90;;;;;;5094886;28;20218;-61
2021/03/24 03:39:53;;;;;;;31.87;20.40;;;6.00;99.90;;;;;;5094966;28;20314;-61
2021/03/24 03:42:21;;;;;;;32.67;21.03;;;6.00;99.90;;;;;;5094215;28;20225;-62
2021/03/24 03:44:50;;;;;;;31.47;20.03;;;6.00;99.90;;;;;;5094855;28;20210;-62
2021/03/24 03:47:17;;;;;;;36.50;21.20;;;6.00;99.90;;;;;;5094776;28;20207;-62
2021/03/24 03:49:44;;;;;;;35.20;20.37;;;5.90;99.90;;;;;;5094380;28;20207;-62
2021/03/24 03:52:38;;;;;;;34.23;20.97;;;6.00;99.90;;;;;;5094553;28;20290;-61
2021/03/24 03:55:18;;;;;;;35.10;20.83;;;5.90;99.90;;;;;;5094276;28;20760;-62
2021/03/24 03:57:51;;;;;;;34.30;21.60;;;5.90;99.90;;;;;;5094213;28;20275;-60
2021/03/24 04:00:23;;;;;;;34.87;20.73;;;5.90;99.90;;;;;;5094083;28;20198;-63
2021/03/24 04:02:56;;;;;;;34.23;20.97;;;5.90;99.90;;;;;;5094311;28;20298;-61
2021/03/24 04:05:27;;;;;;;36.47;21.40;;;5.80;99.90;;;;;;5094112;28;20241;-61
2021/03/24 04:07:59;;;;;;;35.07;21.47;;;5.80;99.90;;;;;;5094295;28;20285;-60
2021/03/24 04:10:31;;;;;;;34.80;21.80;;;5.80;99.90;;;;;;5093802;28;20546;-61
2021/03/24 04:12:59;;;;;;;34.20;20.50;;;5.80;99.90;;;;;;5093161;28;20544;-62
2021/03/24 04:15:28;;;;;;;33.20;19.63;;;5.90;99.90;;;;;;5093339;28;20209;-61
2021/03/24 04:18:01;;;;;;;35.47;21.77;;;5.80;99.90;;;;;;5093348;28;20301;-62
2021/03/24 04:20:31;;;;;;;36.13;21.07;;;5.90;99.90;;;;;;5093292;28;20200;-62
2021/03/24 04:23:01;;;;;;;36.47;21.07;;;5.70;99.90;;;;;;5094021;28;20220;-62
2021/03/24 04:25:36;;;;;;;39.20;22.43;;;5.80;99.90;;;;;;5093659;28;20317;-61
2021/03/24 04:28:04;;;;;;;35.03;22.07;;;5.60;99.90;;;;;;5093275;28;20717;-62
2021/03/24 04:30:38;;;;;;;36.33;21.97;;;5.60;99.90;;;;;;5093725;28;20223;-62
2021/03/24 04:33:05;;;;;;;35.90;20.53;;;5.70;99.90;;;;;;5093776;28;20206;-62
2021/03/24 04:35:32;;;;;;;33.03;20.07;;;5.70;99.90;;;;;;5093376;28;20544;-61
2021/03/24 04:38:04;;;;;;;34.40;21.97;;;5.80;99.90;;;;;;5093413;28;20586;-62
2021/03/24 04:40:36;;;;;;;34.03;21.23;;;5.80;99.90;;;;;;5093701;28;20202;-60
2021/03/24 04:43:07;;;;;;;35.73;21.77;;;5.80;99.90;;;;;;5093363;28;20301;-61
2021/03/24 04:45:41;;;;;;;38.33;22.23;;;5.70;99.90;;;;;;5093682;28;20272;-61
2021/03/24 04:48:14;;;;;;;36.77;24.30;;;5.80;99.90;;;;;;5093612;28;20222;-61
2021/03/24 04:50:49;;;;;;;35.73;21.63;;;5.80;99.90;;;;;;5092947;28;20195;-62
2021/03/24 04:53:18;;;;;;;38.17;22.83;;;5.80;99.90;;;;;;5093376;28;20601;-61
2021/03/24 04:55:46;;;;;;;33.00;20.83;;;5.80;99.90;;;;;;5093150;28;20667;-62
2021/03/24 04:58:32;;;;;;;40.47;23.60;;;5.80;99.90;;;;;;5093032;28;20207;-62
2021/03/24 05:01:07;;;;;;;37.23;23.00;;;5.80;99.90;;;;;;5093357;28;20180;-62
2021/03/24 05:03:38;;;;;;;42.57;23.60;;;5.70;99.90;;;;;;5092723;28;20541;-61
2021/03/24 05:06:09;;;;;;;36.97;22.47;;;5.80;99.90;;;;;;5092940;28;20662;-61
2021/03/24 05:08:39;;;;;;;39.93;24.00;;;5.70;99.90;;;;;;5092783;28;20619;-61
2021/03/24 05:11:14;;;;;;;37.50;22.90;;;5.80;99.90;;;;;;5092362;28;20223;-61
2021/03/24 05:13:46;;;;;;;39.60;23.73;;;5.80;99.90;;;;;;5092947;28;20293;-61
2021/03/24 05:16:24;;;;;;;39.87;23.90;;;5.70;99.90;;;;;;5093034;28;20536;-60
2021/03/24 05:18:53;;;;;;;35.60;22.73;;;5.60;99.90;;;;;;5092441;28;20190;-61
2021/03/24 05:21:34;;;;;;;36.80;22.73;;;5.70;99.90;;;;;;5092443;28;20674;-61
2021/03/24 05:24:02;;;;;;;38.07;23.70;;;5.60;99.90;;;;;;5092643;28;20702;-60
2021/03/24 05:26:33;;;;;;;38.50;23.40;;;5.70;99.90;;;;;;5092606;28;20265;-61
2021/03/24 05:29:04;;;;;;;39.20;23.77;;;5.70;99.90;;;;;;5092671;28;20249;-61
2021/03/24 05:31:39;;;;;;;38.00;22.87;;;5.80;99.90;;;;;;5097104;28;20192;-61
2021/03/24 05:34:12;;;;;;;42.20;24.63;;;5.80;99.90;;;;;;5100036;28;20187;-61
2021/03/24 05:36:43;;;;;;;39.57;23.30;;;5.80;99.90;;;;;;5096818;28;20188;-61
2021/03/24 05:39:14;;;;;;;39.93;23.10;;;5.90;99.90;;;;;;5093152;28;20187;-62
2021/03/24 05:41:46;;;;;;;36.07;22.07;;;5.80;99.90;;;;;;5092410;28;20697;-61
2021/03/24 05:44:42;;;;;;;40.53;24.07;;;5.80;99.90;;;;;;5092432;28;20622;-61
2021/03/24 05:47:44;;;;;;;39.50;24.10;;;5.90;99.90;;;;;;5089837;28;20195;-62
2021/03/24 05:50:35;;;;;;;40.53;23.80;;;5.90;99.90;;;;;;5056386;28;20206;-61
2021/03/24 05:53:16;;;;;;;39.57;23.07;;;6.00;99.90;;;;;;5092530;28;20194;-61
2021/03/24 05:55:48;;;;;;;39.13;21.73;;;6.00;99.90;;;;;;5092354;28;20194;-61
2021/03/24 05:58:30;;;;;;;36.17;23.70;;;6.00;99.90;;;;;;5092223;28;20192;-62
2021/03/24 06:01:03;;;;;;;38.27;23.50;;;6.10;99.90;;;;;;5092256;28;20187;-61
2021/03/24 06:03:51;;;;;;;42.13;23.53;;;6.10;99.90;;;;;;5092477;28;20218;-61
2021/03/24 06:06:50;;;;;;;39.53;24.50;;;6.10;99.90;;;;;;5092431;28;20184;-62
2021/03/24 06:10:02;;;;;;;36.37;21.13;;;6.20;99.90;;;;;;5092380;28;20283;-61
2021/03/24 06:12:49;;;;;;;40.97;22.87;;;6.20;99.90;;;;;;5091801;28;20639;-60
2021/03/24 06:15:42;;;;;;;42.67;22.80;;;6.20;99.90;;;;;;5092303;28;20286;-60
2021/03/24 06:18:30;;;;;;;38.50;23.50;;;6.10;99.90;;;;;;5092547;28;20188;-62
2021/03/24 06:21:02;;;;;;;36.50;22.13;;;6.10;99.90;;;;;;5092174;28;20635;-60
2021/03/24 06:23:50;;;;;;;39.87;23.13;;;6.10;99.90;;;;;;5090718;28;20306;-61
2021/03/24 06:26:44;;;;;;;37.10;22.93;;;6.30;99.90;;;;;;5085538;28;20274;-61
2021/03/24 06:29:24;;;;;;;42.50;24.90;;;6.40;99.90;;;;;;5085673;28;20207;-62
2021/03/24 06:32:30;;;;;;;40.40;22.87;;;6.50;99.90;;;;;;5074970;28;20224;-60
2021/03/24 06:35:13;;;;;;;36.67;21.93;;;6.60;99.90;;;;;;5043514;28;20211;-62
2021/03/24 06:37:56;;;;;;;37.70;23.37;;;6.60;99.90;;;;;;5087999;28;20805;-61
2021/03/24 06:40:37;;;;;;;38.13;23.10;;;6.80;99.90;;;;;;5095018;28;20213;-61
2021/03/24 06:43:34;;;;;;;37.47;22.53;;;6.90;99.90;;;;;;5082238;28;20322;-61
2021/03/24 06:46:14;;;;;;;38.33;22.37;;;6.80;99.90;;;;;;5071967;28;20286;-62
2021/03/24 06:49:10;;;;;;;40.90;24.53;;;6.90;99.90;;;;;;5075510;28;20196;-62
2021/03/24 06:52:17;;;;;;;35.27;22.23;;;6.90;99.90;;;;;;5053230;28;20207;-62
2021/03/24 06:55:24;;;;;;;39.50;22.80;;;7.10;99.90;;;;;;5085364;28;20199;-61
2021/03/24 06:58:24;;;;;;;37.03;22.10;;;7.20;99.90;;;;;;5094969;28;20191;-62
2021/03/24 07:01:30;;;;;;;40.43;22.93;;;7.20;99.90;;;;;;5082032;28;20292;-61
2021/03/24 07:04:30;;;;;;;38.83;22.87;;;7.20;99.90;;;;;;5062010;28;20248;-60
2021/03/24 07:07:22;;;;;;;37.97;22.67;;;7.40;99.90;;;;;;5076907;28;20271;-61
2021/03/24 07:10:02;;;;;;;37.70;23.67;;;7.40;99.90;;;;;;5083668;28;20713;-62
2021/03/24 07:12:39;;;;;;;39.10;23.23;;;7.50;99.90;;;;;;5074905;28;20275;-61
2021/03/24 07:15:19;;;;;;;37.70;23.00;;;7.60;99.90;;;;;;5074588;28;20246;-62
2021/03/24 07:18:10;;;;;;;37.67;22.63;;;7.70;99.90;;;;;;5075014;28;20189;-61
2021/03/24 07:21:10;;;;;;;39.37;23.10;;;7.80;99.90;;;;;;5070324;28;20208;-62
2021/03/24 07:24:03;;;;;;;36.33;23.20;;;7.90;99.90;;;;;;5082455;28;20254;-61
2021/03/24 07:26:47;;;;;;;36.23;22.30;;;8.00;99.90;;;;;;5077197;28;20319;-62
2021/03/24 07:29:27;;;;;;;34.80;21.87;;;8.10;99.90;;;;;;5074554;28;20299;-61
2021/03/24 07:32:06;;;;;;;38.27;22.70;;;8.10;99.90;;;;;;5074233;28;20663;-61
2021/03/24 07:35:03;;;;;;;35.23;22.40;;;8.10;99.90;;;;;;5073599;28;20624;-60
2021/03/24 07:37:52;;;;;;;37.53;22.83;;;8.10;99.90;;;;;;5073673;28;20224;-62
2021/03/24 07:40:46;;;;;;;37.20;22.57;;;8.20;99.90;;;;;;5079443;28;20342;-60
2021/03/24 07:43:30;;;;;;;38.37;22.67;;;8.30;99.90;;;;;;5091034;28;20208;-60
2021/03/24 07:46:14;;;;;;;37.07;22.97;;;8.30;99.90;;;;;;5091103;28;20547;-61
2021/03/24 07:49:10;;;;;;;35.07;22.47;;;8.40;99.90;;;;;;5087973;28;20222;-61
2021/03/24 07:52:10;;;;;;;35.60;22.13;;;8.40;99.90;;;;;;5084031;28;20200;-61
2021/03/24 07:54:43;;;;;;;37.13;23.27;;;8.60;99.90;;;;;;5086732;28;20235;-61
2021/03/24 07:57:21;;;;;;;39.67;23.67;;;8.90;99.90;;;;;;5090936;28;20621;-61
2021/03/24 07:59:57;;;;;;;36.77;22.90;;;9.00;99.90;;;;;;5090497;28;20220;-60
2021/03/24 08:02:47;;;;;;;39.37;23.00;;;9.00;99.90;;;;;;5077286;28;20294;-61
2021/03/24 08:05:42;;;;;;;37.57;23.63;;;9.10;99.90;;;;;;5091026;28;20185;-60
2021/03/24 08:08:12;;;;;;;37.37;23.67;;;9.10;99.90;;;;;;5091242;28;20228;-60
2021/03/24 08:10:49;;;;;;;39.43;24.77;;;9.20;99.90;;;;;;5088771;28;20210;-60
2021/03/24 08:13:40;;;;;;;37.40;23.20;;;9.20;99.90;;;;;;5078988;28;20208;-63
2021/03/24 08:16:33;;;;;;;41.23;23.10;;;9.40;99.90;;;;;;5068968;28;20292;-62
2021/03/24 08:19:14;;;;;;;38.10;24.10;;;9.50;99.90;;;;;;5069977;28;20239;-63
2021/03/24 08:21:56;;;;;;;34.30;22.63;;;9.70;99.90;;;;;;5069693;28;20269;-62
2021/03/24 08:24:41;;;;;;;36.67;23.10;;;9.70;99.90;;;;;;5069812;28;20232;-64
2021/03/24 08:27:15;;;;;;;36.63;23.67;;;9.70;99.90;;;;;;5078813;28;20658;-62
2021/03/24 08:29:50;;;;;;;37.57;23.20;;;9.70;99.90;;;;;;5074090;28;20231;-64
2021/03/24 08:33:09;;;;;;;39.57;24.77;;;9.70;99.90;;;;;;5090422;28;20305;-59
2021/03/24 08:36:01;;;;;;;34.40;23.60;;;9.70;99.90;;;;;;5090074;28;20265;-61
2021/03/24 08:38:53;;;;;;;40.73;23.60;;;9.70;99.90;;;;;;5090259;28;20294;-60
2021/03/24 08:41:51;;;;;;;40.43;23.93;;;9.70;99.90;;;;;;5090112;28;20283;-62
2021/03/24 08:44:24;;;;;;;37.03;23.47;;;9.70;99.90;;;;;;5089975;28;20267;-62
2021/03/24 08:46:57;;;;;;;37.23;23.10;;;9.70;99.90;;;;;;5090063;28;20283;-62
2021/03/24 08:49:27;;;;;;;38.23;23.47;;;9.60;99.90;;;;;;5089637;28;20188;-63
2021/03/24 08:52:03;;;;;;;41.77;24.27;;;9.50;99.90;;;;;;5088809;28;20267;-64
2021/03/24 08:54:58;;;;;;;40.73;23.43;;;9.50;99.90;;;;;;5089084;28;20198;-65
2021/03/24 08:58:00;;;;;;;37.50;24.00;;;9.60;99.90;;;;;;5066925;28;20257;-65
2021/03/24 09:00:40;;;;;;;36.40;22.10;;;9.70;99.90;;;;;;5089889;28;20275;-63
2021/03/24 09:03:38;;;;;;;35.70;22.47;;;9.80;99.90;;;;;;5090015;28;20239;-62
2021/03/24 09:06:14;;;;;;;36.50;22.77;;;9.80;99.90;;;;;;5068437;28;20290;-63
2021/03/24 09:08:47;;;;;;;38.27;24.37;;;9.80;99.90;;;;;;5090083;28;20278;-62
2021/03/24 09:11:41;;;;;;;36.13;24.63;;;9.90;99.90;;;;;;5089815;28;20196;-62
2021/03/24 09:14:24;;;;;;;39.70;24.73;;;10.00;99.90;;;;;;5089199;28;20245;-62
2021/03/24 09:17:23;;;;;;;42.00;25.17;;;10.00;99.90;;;;;;5082942;28;20546;-60
2021/03/24 09:20:24;;;;;;;41.07;24.43;;;10.10;99.90;;;;;;5070982;28;20290;-62
2021/03/24 09:23:07;;;;;;;40.03;24.77;;;10.20;99.90;;;;;;5067104;28;20260;-61
2021/03/24 09:25:46;;;;;;;36.43;24.83;;;10.40;99.90;;;;;;5069070;28;20228;-60
2021/03/24 09:28:38;;;;;;;43.03;25.13;;;10.50;99.90;;;;;;5069035;28;20284;-60
2021/03/24 09:31:22;;;;;;;39.33;24.73;;;10.60;99.90;;;;;;5084129;28;20513;-60
2021/03/24 09:33:53;;;;;;;41.40;25.10;;;10.50;99.90;;;;;;5089420;28;20242;-60
2021/03/24 09:36:56;;;;;;;38.57;24.60;;;10.60;99.90;;;;;;5089561;28;20196;-59
2021/03/24 09:39:29;;;;;;;38.57;25.00;;;10.70;99.90;;;;;;5089351;28;20191;-60
2021/03/24 09:42:01;;;;;;;39.30;25.47;;;10.80;99.90;;;;;;5090224;28;20238;-59
2021/03/24 09:44:34;;;;;;;39.03;25.87;;;10.80;99.90;;;;;;5094026;28;20180;-59
2021/03/24 09:47:01;;;;;;;41.37;26.67;;;10.90;99.90;;;;;;5092906;28;20188;-60
2021/03/24 09:49:34;;;;;;;40.00;27.13;;;11.10;99.90;;;;;;5089207;28;20195;-60
2021/03/24 09:52:26;;;;;;;37.77;26.43;;;11.20;99.90;;;;;;5088896;28;20258;-62
2021/03/24 09:55:14;;;;;;;38.87;27.27;;;11.30;99.90;;;;;;5084880;28;20200;-63
2021/03/24 09:58:14;;;;;;;39.53;27.07;;;11.30;99.90;;;;;;5089663;28;20195;-60
2021/03/24 10:00:52;;;;;;;42.13;28.40;;;11.30;99.90;;;;;;5091211;28;20196;-60
2021/03/24 10:03:30;;;;;;;44.40;29.07;;;11.40;99.90;;;;;;5092959;28;20667;-59
2021/03/24 10:06:01;;;;;;;41.33;27.07;;;11.40;99.90;;;;;;5093325;28;20275;-60
2021/03/24 10:08:34;;;;;;;43.33;28.87;;;11.40;99.90;;;;;;5093446;28;20703;-60
2021/03/24 10:11:06;;;;;;;45.10;29.37;;;11.50;99.90;;;;;;5093118;28;20196;-60
2021/03/24 10:13:40;;;;;;;40.87;28.67;;;11.50;99.90;;;;;;5091395;28;20216;-64
2021/03/24 10:16:15;;;;;;;40.97;28.87;;;11.60;99.90;;;;;;5089687;28;20271;-61
2021/03/24 10:18:46;;;;;;;46.70;30.20;;;11.60;99.90;;;;;;5091572;28;20590;-63
2021/03/24 10:21:16;;;;;;;44.27;28.80;;;11.70;99.90;;;;;;5092403;28;20202;-62
2021/03/24 10:23:46;;;;;;;45.40;28.63;;;11.90;99.90;;;;;;5092712;28;20219;-64
2021/03/24 10:26:19;;;;;;;44.50;28.57;;;11.90;99.90;;;;;;5092702;28;20343;-63
2021/03/24 10:28:52;;;;;;;44.93;31.10;;;11.80;99.90;;;;;;5092112;28;20188;-62
2021/03/24 10:31:22;;;;;;;42.53;31.00;;;11.70;99.90;;;;;;5092904;28;20279;-62
2021/03/24 10:33:52;;;;;;;41.73;29.13;;;11.70;99.90;;;;;;5092427;28;20223;-62
2021/03/24 10:36:26;;;;;;;41.13;30.10;;;11.80;99.90;;;;;;5092886;28;20181;-61
2021/03/24 10:39:03;;;;;;;44.30;30.10;;;11.80;99.90;;;;;;5092451;28;20188;-61
2021/03/24 10:41:45;;;;;;;42.80;30.37;;;11.80;99.90;;;;;;5092202;28;20274;-61
2021/03/24 10:44:18;;;;;;;42.23;30.07;;;11.80;99.90;;;;;;5091973;28;20295;-61
2021/03/24 10:47:01;;;;;;;40.40;29.37;;;11.80;99.90;;;;;;5086197;28;20284;-61
2021/03/24 10:49:36;;;;;;;42.40;30.30;;;11.80;99.90;;;;;;5077820;28;20553;-61
2021/03/24 10:52:06;;;;;;;42.00;30.10;;;12.00;99.90;;;;;;5071986;28;20385;-62
2021/03/24 10:54:36;;;;;;;41.93;28.73;;;12.00;99.90;;;;;;5071507;28;20527;-62
2021/03/24 10:57:29;;;;;;;41.23;28.63;;;12.00;99.90;;;;;;5071620;28;20204;-62
2021/03/24 11:00:17;;;;;;;36.87;27.10;;;12.10;99.90;;;;;;5071730;28;20250;-60
2021/03/24 11:02:52;;;;;;;43.53;29.53;;;12.10;99.90;;;;;;5071436;28;20308;-61
2021/03/24 11:05:26;;;;;;;40.97;28.90;;;12.20;99.90;;;;;;5071866;28;20235;-61
2021/03/24 11:08:01;;;;;;;43.57;29.23;;;12.40;99.90;;;;;;5071231;28;20254;-61
2021/03/24 11:10:43;;;;;;;41.00;29.23;;;12.40;99.90;;;;;;5071021;28;20192;-62
2021/03/24 11:13:25;;;;;;;40.63;29.03;;;12.40;99.90;;;;;;5071369;28;20212;-61
2021/03/24 11:16:16;;;;;;;38.87;27.87;;;12.40;99.90;;;;;;5071826;28;20212;-62
2021/03/24 11:18:45;;;;;;;40.97;28.37;;;12.40;99.90;;;;;;5080106;28;20418;-61
2021/03/24 11:21:33;;;;;;;41.50;28.73;;;12.40;99.90;;;;;;5091736;28;20565;-61
2021/03/24 11:24:13;;;;;;;38.87;27.40;;;12.40;99.90;;;;;;5079009;28;20220;-61
2021/03/24 11:27:04;;;;;;;40.47;27.70;;;12.40;99.90;;;;;;5087395;28;20215;-61
2021/03/24 11:29:37;;;;;;;39.80;28.73;;;12.40;99.90;;;;;;5082807;28;20238;-61
2021/03/24 11:32:17;;;;;;;40.03;28.23;;;12.50;99.90;;;;;;5091550;28;20195;-61
2021/03/24 11:34:49;;;;;;;39.67;26.97;;;12.40;99.90;;;;;;5091562;28;20233;-60
2021/03/24 11:37:31;;;;;;;44.70;28.37;;;12.40;99.90;;;;;;5091040;28;20719;-63
2021/03/24 11:40:06;;;;;;;39.17;27.23;;;12.40;99.90;;;;;;5091331;28;20216;-61
2021/03/24 11:42:36;;;;;;;40.73;27.97;;;12.60;99.90;;;;;;5083916;28;20750;-60
2021/03/24 11:45:10;;;;;;;40.50;28.40;;;12.60;99.90;;;;;;5075037;28;20300;-61
2021/03/24 11:47:51;;;;;;;38.97;27.60;;;12.70;99.90;;;;;;5071175;28;20277;-61
2021/03/24 11:50:27;;;;;;;43.40;28.63;;;12.80;99.90;;;;;;5070975;28;20211;-62
2021/03/24 11:53:02;;;;;;;35.92;26.58;;;12.80;99.90;;;;;;5071059;28;20287;-61
2021/03/24 11:55:47;;;;;;;39.07;26.17;;;12.90;99.90;;;;;;5088762;28;20212;-61
2021/03/24 11:58:41;;;;;;;44.20;28.53;;;13.00;99.90;;;;;;5079265;28;20636;-60
2021/03/24 12:01:24;;;;;;;41.03;26.63;;;13.00;99.90;;;;;;5090959;28;20506;-63
2021/03/24 12:04:12;;;;;;;43.83;28.20;;;13.00;99.90;;;;;;5090332;28;20205;-61
2021/03/24 12:06:48;;;;;;;39.42;27.90;;;13.00;99.90;;;;;;5090098;28;20271;-62
2021/03/24 12:09:21;;;;;;;40.63;27.88;;;13.00;99.90;;;;;;5078426;28;20295;-63
2021/03/24 12:11:49;;;;;;;38.95;27.35;;;13.00;99.90;;;;;;5090315;28;20211;-63
2021/03/24 12:14:20;;;;;;;40.27;28.70;;;13.00;99.90;;;;;;5090318;28;20244;-63
2021/03/24 12:16:51;;;;;;;39.97;27.20;;;13.00;99.90;;;;;;5090698;28;20271;-63
2021/03/24 12:19:29;;;;;;;39.90;28.33;;;13.10;99.90;;;;;;5090376;28;20184;-63
2021/03/24 12:21:58;;;;;;;38.10;26.90;;;13.10;99.90;;;;;;5090078;28;20230;-63
2021/03/24 12:24:31;;;;;;;39.43;29.07;;;13.10;99.90;;;;;;5090066;28;20733;-64
2021/03/24 12:27:08;;;;;;;41.30;27.70;;;13.20;99.90;;;;;;5089571;28;20295;-63
2021/03/24 12:29:36;;;;;;;40.87;28.80;;;13.20;99.90;;;;;;5089786;28;20180;-63
2021/03/24 12:32:08;;;;;;;43.47;28.70;;;13.20;99.90;;;;;;5089009;28;20192;-63
2021/03/24 12:34:43;;;;;;;41.35;29.92;;;13.30;99.90;;;;;;5089353;28;20184;-63
2021/03/24 12:37:25;;;;;;;39.80;27.63;;;13.30;99.90;;;;;;5089571;28;20611;-64
2021/03/24 12:39:53;;;;;;;38.17;27.77;;;13.40;99.90;;;;;;5089674;28;20218;-63
2021/03/24 12:42:26;;;;;;;43.05;28.33;;;13.40;99.90;;;;;;5089488;28;20640;-63
2021/03/24 12:44:53;;;;;;;40.53;28.00;;;13.40;99.90;;;;;;5081152;28;20195;-64
2021/03/24 12:47:37;;;;;;;39.57;27.43;;;13.40;99.90;;;;;;5082983;28;20294;-63
2021/03/24 12:50:22;;;;;;;40.97;29.02;;;13.30;99.90;;;;;;5077830;28;20199;-62
2021/03/24 12:52:55;;;;;;;39.83;27.70;;;13.40;99.90;;;;;;5075121;28;20196;-61
2021/03/24 12:55:23;;;;;;;41.10;28.48;;;13.40;99.90;;;;;;5075304;28;20287;-64
2021/03/24 12:57:54;;;;;;;38.63;28.05;;;13.40;99.90;;;;;;5069136;28;20201;-64
2021/03/24 13:00:31;;;;;;;38.77;27.43;;;13.40;99.90;;;;;;5069822;28;20276;-63
2021/03/24 13:03:35;;;;;;;43.23;28.50;;;13.40;99.90;;;;;;5069392;28;20257;-62
2021/03/24 13:06:18;;;;;;;41.13;30.23;;;13.40;99.90;;;;;;5068717;28;20201;-60
2021/03/24 13:08:54;;;;;;;39.83;28.83;;;13.50;99.90;;;;;;5069559;28;20181;-61
2021/03/24 13:11:32;;;;;;;40.20;28.05;;;13.60;99.90;;;;;;5069094;28;20275;-64
2021/03/24 13:14:22;;;;;;;39.07;29.07;;;13.60;99.90;;;;;;5068984;28;20648;-64
2021/03/24 13:16:57;;;;;;;38.37;27.13;;;13.70;99.90;;;;;;5068991;28;20690;-64
2021/03/24 13:19:31;;;;;;;37.15;27.10;;;13.70;99.90;;;;;;5068900;28;20208;-65
2021/03/24 13:22:02;;;;;;;36.00;25.85;;;13.70;99.90;;;;;;5068965;28;20281;-57
2021/03/24 13:24:58;;;;;;;36.35;26.33;;;13.70;99.90;;;;;;5071203;28;21001;-70
2021/03/24 13:28:03;;;;;;;38.13;27.07;;;13.80;99.90;;;;;;5081328;28;20825;-69
2021/03/24 13:30:37;;;;;;;36.78;26.23;;;13.70;99.90;;;;;;5088695;28;20296;-59
2021/03/24 13:33:12;;;;;;;39.40;24.70;;;13.70;99.90;;;;;;5088387;28;20614;-67
2021/03/24 13:35:42;;;;;;;35.60;25.38;;;13.70;99.90;;;;;;5089203;28;20186;-56
2021/03/24 13:38:24;;;;;;;36.83;25.45;;;13.70;99.90;;;;;;5089135;28;20200;-66
2021/03/24 13:40:53;;;;;;;32.63;24.08;;;13.60;99.90;;;;;;5089205;28;20252;-64
2021/03/24 13:43:26;;;;;;;37.17;25.83;;;13.60;99.90;;;;;;5090266;28;20313;-62
2021/03/24 13:45:57;;;;;;;35.90;24.75;;;13.70;99.90;;;;;;5092044;28;20216;-68
2021/03/24 13:48:29;;;;;;;34.03;25.50;;;13.70;99.90;;;;;;5089795;28;20209;-61
2021/03/24 13:51:05;;;;;;;35.83;25.20;;;13.70;99.90;;;;;;5078275;28;20264;-60
2021/03/24 13:53:44;;;;;;;37.88;24.95;;;13.80;99.90;;;;;;5069455;28;20208;-63
2021/03/24 13:56:26;;;;;;;34.40;24.15;;;13.80;99.90;;;;;;5068665;28;20220;-63
2021/03/24 13:59:22;;;;;;;34.70;24.08;;;13.90;99.90;;;;;;5069006;28;20611;-63
2021/03/24 14:02:01;;;;;;;35.05;25.10;;;13.90;99.90;;;;;;5069140;28;20180;-66
2021/03/24 14:04:59;;;;;;;34.17;23.20;;;13.90;99.90;;;;;;5068522;28;20693;-59
2021/03/24 14:07:37;;;;;;;32.63;23.63;;;13.90;99.90;;;;;;5068853;28;20200;-57
2021/03/24 14:10:16;;;;;;;37.40;24.10;;;14.00;99.90;;;;;;5068681;28;20662;-62
2021/03/24 14:13:11;;;;;;;36.22;24.35;;;13.80;99.90;;;;;;5079880;28;20642;-63
2021/03/24 14:16:22;;;;;;;35.85;23.48;;;13.90;99.90;;;;;;5087643;28;20231;-62
2021/03/24 14:18:59;;;;;;;34.50;24.33;;;13.90;99.90;;;;;;5025858;28;20638;-65
2021/03/24 14:21:39;;;;;;;34.83;24.30;;;13.80;99.90;;;;;;5065440;28;20204;-66
2021/03/24 14:24:15;;;;;;;34.05;23.42;;;13.80;99.90;;;;;;5068015;28;20240;-63
2021/03/24 14:26:59;;;;;;;34.38;24.52;;;13.80;99.90;;;;;;5068224;28;20181;-60
2021/03/24 14:29:42;;;;;;;36.00;24.90;;;13.80;99.90;;;;;;5069326;28;20721;-63
2021/03/24 14:32:19;;;;;;;35.57;25.07;;;13.80;99.90;;;;;;5088926;28;20271;-63
2021/03/24 14:34:59;;;;;;;35.10;24.48;;;13.70;99.90;;;;;;5088928;28;20530;-59
2021/03/24 14:37:39;;;;;;;33.72;24.02;;;13.70;99.90;;;;;;5088958;28;20180;-66
2021/03/24 14:40:22;;;;;;;35.22;24.17;;;13.70;99.90;;;;;;5088058;28;20666;-62
2021/03/24 14:42:52;;;;;;;34.10;23.65;;;13.80;99.90;;;;;;5088687;28;20295;-62
2021/03/24 14:46:01;;;;;;;34.92;24.27;;;13.80;99.90;;;;;;5092825;28;20198;-59